sensor_id;sensor_type;location;lat;lon;timestamp;P1;durP1;ratioP1;P2;durP2;ratioP2
30458;SDS011;17254;50.976;7.034;2023-06-05T00:00:05;4.88;;;2.90;;
30458;SDS011;17254;50.976;7.034;2023-06-05T00:00:17;4.61;;;2.95;;
30458;SDS011;17254;50.976;7.034;2023-06-05T00:00:23;4.68;;;2.97;;
30458;SDS011;17254;50.976;7.034;2023-06-05T00:00:29;5.00;;;2.90;;
30458;SDS011;17254;50.976;7.034;2023-06-05T00:00:36;4.78;;;2.75;;
30458;SDS011;17254;50.976;7.034;2023-06-05T00:00:42;4.80;;;2.80;;
30458;SDS011;17254;50.976;7.034;2023-06-05T00:00:48;5.47;;;2.70;;
30458;SDS011;17254;50.976;7.034;2023-06-05T00:00:54;5.57;;;2.70;;
30458;SDS011;17254;50.976;7.034;2023-06-05T00:01:00;5.00;;;2.75;;
30458;SDS011;17254;50.976;7.034;2023-06-05T00:01:06;4.97;;;2.85;;
30458;SDS011;17254;50.976;7.034;2023-06-05T00:01:14;4.77;;;2.77;;
30458;SDS011;17254;50.976;7.034;2023-06-05T00:01:20;4.50;;;2.80;;
30458;SDS011;17254;50.976;7.034;2023-06-05T00:01:26;4.60;;;3.03;;
30458;SDS011;17254;50.976;7.034;2023-06-05T00:01:32;4.53;;;3.03;;
30458;SDS011;17254;50.976;7.034;2023-06-05T00:01:39;4.44;;;3.18;;
30458;SDS011;17254;50.976;7.034;2023-06-05T00:01:45;4.68;;;3.28;;
30458;SDS011;17254;50.976;7.034;2023-06-05T00:01:51;4.90;;;3.33;;
30458;SDS011;17254;50.976;7.034;2023-06-05T00:01:57;5.72;;;3.17;;
30458;SDS011;17254;50.976;7.034;2023-06-05T00:02:03;6.05;;;3.15;;
30458;SDS011;17254;50.976;7.034;2023-06-05T00:02:09;5.83;;;2.93;;
30458;SDS011;17254;50.976;7.034;2023-06-05T00:02:15;5.73;;;2.90;;
30458;SDS011;17254;50.976;7.034;2023-06-05T00:02:23;5.40;;;2.80;;
30458;SDS011;17254;50.976;7.034;2023-06-05T00:02:31;4.85;;;2.85;;
30458;SDS011;17254;50.976;7.034;2023-06-05T00:02:37;4.70;;;2.80;;
30458;SDS011;17254;50.976;7.034;2023-06-05T00:02:43;4.82;;;2.80;;
30458;SDS011;17254;50.976;7.034;2023-06-05T00:02:49;5.13;;;2.80;;
30458;SDS011;17254;50.976;7.034;2023-06-05T00:02:55;4.88;;;2.65;;
30458;SDS011;17254;50.976;7.034;2023-06-05T00:03:01;4.72;;;2.75;;
30458;SDS011;17254;50.976;7.034;2023-06-05T00:03:07;4.90;;;2.87;;
30458;SDS011;17254;50.976;7.034;2023-06-05T00:03:13;4.68;;;2.85;;
30458;SDS011;17254;50.976;7.034;2023-06-05T00:03:19;4.37;;;2.83;;
30458;SDS011;17254;50.976;7.034;2023-06-05T00:03:25;4.40;;;3.00;;
30458;SDS011;17254;50.976;7.034;2023-06-05T00:03:32;4.17;;;2.80;;
30458;SDS011;17254;50.976;7.034;2023-06-05T00:03:39;5.50;;;2.80;;
30458;SDS011;17254;50.976;7.034;2023-06-05T00:03:45;6.00;;;2.92;;
30458;SDS011;17254;50.976;7.034;2023-06-05T00:03:52;5.90;;;2.90;;
30458;SDS011;17254;50.976;7.034;2023-06-05T00:03:58;6.00;;;2.83;;
30458;SDS011;17254;50.976;7.034;2023-06-05T00:04:04;6.37;;;3.13;;
30458;SDS011;17254;50.976;7.034;2023-06-05T00:04:11;4.84;;;3.08;;
30458;SDS011;17254;50.976;7.034;2023-06-05T00:04:16;4.33;;;2.93;;
30458;SDS011;17254;50.976;7.034;2023-06-05T00:04:23;4.44;;;2.80;;
30458;SDS011;17254;50.976;7.034;2023-06-05T00:04:29;4.22;;;2.80;;
30458;SDS011;17254;50.976;7.034;2023-06-05T00:04:35;4.30;;;2.53;;
30458;SDS011;17254;50.976;7.034;2023-06-05T00:04:41;4.38;;;2.60;;
30458;SDS011;17254;50.976;7.034;2023-06-05T00:04:48;4.40;;;2.70;;
30458;SDS011;17254;50.976;7.034;2023-06-05T00:04:55;4.40;;;2.83;;
30458;SDS011;17254;50.976;7.034;2023-06-05T00:05:01;4.27;;;2.87;;
30458;SDS011;17254;50.976;7.034;2023-06-05T00:05:08;3.93;;;2.95;;
30458;SDS011;17254;50.976;7.034;2023-06-05T00:05:15;3.93;;;2.80;;
30458;SDS011;17254;50.976;7.034;2023-06-05T00:05:23;4.03;;;2.70;;
30458;SDS011;17254;50.976;7.034;2023-06-05T00:05:30;4.27;;;2.83;;
30458;SDS011;17254;50.976;7.034;2023-06-05T00:05:36;5.10;;;2.92;;
30458;SDS011;17254;50.976;7.034;2023-06-05T00:05:43;5.40;;;2.88;;
30458;SDS011;17254;50.976;7.034;2023-06-05T00:05:49;5.10;;;2.90;;
30458;SDS011;17254;50.976;7.034;2023-06-05T00:05:55;5.15;;;2.97;;
30458;SDS011;17254;50.976;7.034;2023-06-05T00:06:02;4.73;;;2.73;;
30458;SDS011;17254;50.976;7.034;2023-06-05T00:06:08;4.65;;;2.78;;
30458;SDS011;17254;50.976;7.034;2023-06-05T00:06:14;5.00;;;2.85;;
30458;SDS011;17254;50.976;7.034;2023-06-05T00:06:20;5.10;;;3.05;;
30458;SDS011;17254;50.976;7.034;2023-06-05T00:06:26;5.43;;;3.00;;
30458;SDS011;17254;50.976;7.034;2023-06-05T00:06:32;5.30;;;3.08;;
30458;SDS011;17254;50.976;7.034;2023-06-05T00:06:38;4.92;;;2.86;;
30458;SDS011;17254;50.976;7.034;2023-06-05T00:06:45;4.54;;;2.90;;
30458;SDS011;17254;50.976;7.034;2023-06-05T00:06:51;4.43;;;2.83;;
30458;SDS011;17254;50.976;7.034;2023-06-05T00:06:57;4.20;;;2.80;;
30458;SDS011;17254;50.976;7.034;2023-06-05T00:07:03;4.27;;;2.80;;
30458;SDS011;17254;50.976;7.034;2023-06-05T00:07:09;4.06;;;2.82;;
30458;SDS011;17254;50.976;7.034;2023-06-05T00:07:15;3.90;;;2.72;;
30458;SDS011;17254;50.976;7.034;2023-06-05T00:07:28;4.44;;;2.70;;
30458;SDS011;17254;50.976;7.034;2023-06-05T00:07:35;4.50;;;2.80;;
30458;SDS011;17254;50.976;7.034;2023-06-05T00:07:42;5.06;;;2.88;;
30458;SDS011;17254;50.976;7.034;2023-06-05T00:07:49;5.40;;;3.07;;
30458;SDS011;17254;50.976;7.034;2023-06-05T00:07:55;5.28;;;2.92;;
30458;SDS011;17254;50.976;7.034;2023-06-05T00:08:00;5.43;;;2.95;;
30458;SDS011;17254;50.976;7.034;2023-06-05T00:08:06;5.30;;;2.93;;
30458;SDS011;17254;50.976;7.034;2023-06-05T00:08:14;4.82;;;2.90;;
30458;SDS011;17254;50.976;7.034;2023-06-05T00:08:20;4.70;;;2.97;;
30458;SDS011;17254;50.976;7.034;2023-06-05T00:08:26;4.63;;;3.15;;
30458;SDS011;17254;50.976;7.034;2023-06-05T00:08:32;4.93;;;3.40;;
30458;SDS011;17254;50.976;7.034;2023-06-05T00:08:38;5.03;;;3.43;;
30458;SDS011;17254;50.976;7.034;2023-06-05T00:08:44;5.27;;;3.30;;
30458;SDS011;17254;50.976;7.034;2023-06-05T00:08:50;5.45;;;3.40;;
30458;SDS011;17254;50.976;7.034;2023-06-05T00:08:56;5.23;;;3.30;;
30458;SDS011;17254;50.976;7.034;2023-06-05T00:09:03;4.98;;;3.18;;
30458;SDS011;17254;50.976;7.034;2023-06-05T00:09:09;4.80;;;3.10;;
30458;SDS011;17254;50.976;7.034;2023-06-05T00:09:18;4.50;;;3.23;;
30458;SDS011;17254;50.976;7.034;2023-06-05T00:09:23;4.53;;;3.17;;
30458;SDS011;17254;50.976;7.034;2023-06-05T00:09:29;4.75;;;3.15;;
30458;SDS011;17254;50.976;7.034;2023-06-05T00:09:35;4.85;;;3.08;;
30458;SDS011;17254;50.976;7.034;2023-06-05T00:09:41;5.07;;;2.97;;
30458;SDS011;17254;50.976;7.034;2023-06-05T00:09:47;4.93;;;2.97;;
30458;SDS011;17254;50.976;7.034;2023-06-05T00:09:53;4.87;;;2.93;;
30458;SDS011;17254;50.976;7.034;2023-06-05T00:09:59;4.75;;;2.92;;
30458;SDS011;17254;50.976;7.034;2023-06-05T00:10:05;5.00;;;2.80;;
30458;SDS011;17254;50.976;7.034;2023-06-05T00:10:12;4.74;;;2.82;;
30458;SDS011;17254;50.976;7.034;2023-06-05T00:10:18;4.50;;;2.70;;
30458;SDS011;17254;50.976;7.034;2023-06-05T00:10:25;4.30;;;2.60;;
30458;SDS011;17254;50.976;7.034;2023-06-05T00:10:31;4.28;;;2.64;;
30458;SDS011;17254;50.976;7.034;2023-06-05T00:10:37;4.20;;;2.63;;
30458;SDS011;17254;50.976;7.034;2023-06-05T00:10:44;4.47;;;2.80;;
30458;SDS011;17254;50.976;7.034;2023-06-05T00:10:50;4.64;;;2.68;;
30458;SDS011;17254;50.976;7.034;2023-06-05T00:10:56;4.63;;;2.70;;
30458;SDS011;17254;50.976;7.034;2023-06-05T00:11:02;4.30;;;2.60;;
30458;SDS011;17254;50.976;7.034;2023-06-05T00:11:09;4.33;;;2.53;;
30458;SDS011;17254;50.976;7.034;2023-06-05T00:11:15;4.77;;;2.47;;
30458;SDS011;17254;50.976;7.034;2023-06-05T00:11:21;4.93;;;2.53;;
30458;SDS011;17254;50.976;7.034;2023-06-05T00:11:27;5.10;;;2.60;;
30458;SDS011;17254;50.976;7.034;2023-06-05T00:11:33;5.20;;;2.65;;
30458;SDS011;17254;50.976;7.034;2023-06-05T00:11:39;4.90;;;2.72;;
30458;SDS011;17254;50.976;7.034;2023-06-05T00:11:45;4.43;;;2.80;;
30458;SDS011;17254;50.976;7.034;2023-06-05T00:11:51;4.28;;;2.83;;
30458;SDS011;17254;50.976;7.034;2023-06-05T00:11:57;3.97;;;2.78;;
30458;SDS011;17254;50.976;7.034;2023-06-05T00:12:03;3.90;;;2.80;;
30458;SDS011;17254;50.976;7.034;2023-06-05T00:12:10;3.68;;;2.62;;
30458;SDS011;17254;50.976;7.034;2023-06-05T00:12:17;3.74;;;2.66;;
30458;SDS011;17254;50.976;7.034;2023-06-05T00:12:23;4.00;;;2.80;;
30458;SDS011;17254;50.976;7.034;2023-06-05T00:12:29;4.05;;;2.90;;
30458;SDS011;17254;50.976;7.034;2023-06-05T00:12:35;4.70;;;2.87;;
30458;SDS011;17254;50.976;7.034;2023-06-05T00:12:42;5.00;;;3.00;;
30458;SDS011;17254;50.976;7.034;2023-06-05T00:12:49;5.02;;;2.96;;
30458;SDS011;17254;50.976;7.034;2023-06-05T00:12:55;4.85;;;2.80;;
30458;SDS011;17254;50.976;7.034;2023-06-05T00:13:01;4.90;;;2.86;;
30458;SDS011;17254;50.976;7.034;2023-06-05T00:13:08;4.93;;;2.93;;
30458;SDS011;17254;50.976;7.034;2023-06-05T00:13:14;4.95;;;2.90;;
30458;SDS011;17254;50.976;7.034;2023-06-05T00:13:21;4.93;;;3.00;;
30458;SDS011;17254;50.976;7.034;2023-06-05T00:13:26;4.70;;;2.95;;
30458;SDS011;17254;50.976;7.034;2023-06-05T00:13:32;4.35;;;2.90;;
30458;SDS011;17254;50.976;7.034;2023-06-05T00:13:39;4.23;;;2.90;;
30458;SDS011;17254;50.976;7.034;2023-06-05T00:13:46;4.76;;;2.92;;
30458;SDS011;17254;50.976;7.034;2023-06-05T00:13:52;4.73;;;2.80;;
30458;SDS011;17254;50.976;7.034;2023-06-05T00:13:58;5.00;;;2.97;;
30458;SDS011;17254;50.976;7.034;2023-06-05T00:14:04;5.27;;;3.20;;
30458;SDS011;17254;50.976;7.034;2023-06-05T00:14:10;5.40;;;3.30;;
30458;SDS011;17254;50.976;7.034;2023-06-05T00:14:16;4.90;;;3.20;;
30458;SDS011;17254;50.976;7.034;2023-06-05T00:14:22;4.88;;;3.30;;
30458;SDS011;17254;50.976;7.034;2023-06-05T00:14:29;4.65;;;3.17;;
30458;SDS011;17254;50.976;7.034;2023-06-05T00:14:35;4.22;;;2.82;;
30458;SDS011;17254;50.976;7.034;2023-06-05T00:14:42;4.07;;;2.70;;
30458;SDS011;17254;50.976;7.034;2023-06-05T00:14:49;4.40;;;2.87;;
30458;SDS011;17254;50.976;7.034;2023-06-05T00:14:55;4.86;;;3.00;;
30458;SDS011;17254;50.976;7.034;2023-06-05T00:15:02;5.37;;;3.07;;
30458;SDS011;17254;50.976;7.034;2023-06-05T00:15:10;6.02;;;3.13;;
30458;SDS011;17254;50.976;7.034;2023-06-05T00:15:16;5.55;;;3.00;;
30458;SDS011;17254;50.976;7.034;2023-06-05T00:15:21;5.25;;;2.72;;
30458;SDS011;17254;50.976;7.034;2023-06-05T00:15:28;4.72;;;2.63;;
30458;SDS011;17254;50.976;7.034;2023-06-05T00:15:36;4.72;;;2.73;;
30458;SDS011;17254;50.976;7.034;2023-06-05T00:15:42;4.90;;;2.90;;
30458;SDS011;17254;50.976;7.034;2023-06-05T00:15:49;4.95;;;2.90;;
30458;SDS011;17254;50.976;7.034;2023-06-05T00:15:55;5.40;;;3.02;;
30458;SDS011;17254;50.976;7.034;2023-06-05T00:16:02;5.34;;;2.98;;
30458;SDS011;17254;50.976;7.034;2023-06-05T00:16:09;5.06;;;2.76;;
30458;SDS011;17254;50.976;7.034;2023-06-05T00:16:15;5.22;;;2.70;;
30458;SDS011;17254;50.976;7.034;2023-06-05T00:16:21;5.63;;;2.67;;
30458;SDS011;17254;50.976;7.034;2023-06-05T00:16:28;5.50;;;2.63;;
30458;SDS011;17254;50.976;7.034;2023-06-05T00:16:34;5.20;;;2.78;;
30458;SDS011;17254;50.976;7.034;2023-06-05T00:16:40;5.03;;;2.73;;
30458;SDS011;17254;50.976;7.034;2023-06-05T00:16:47;4.45;;;2.65;;
30458;SDS011;17254;50.976;7.034;2023-06-05T00:16:55;4.73;;;2.77;;
30458;SDS011;17254;50.976;7.034;2023-06-05T00:17:02;4.80;;;2.60;;
30458;SDS011;17254;50.976;7.034;2023-06-05T00:17:09;5.30;;;2.70;;
30458;SDS011;17254;50.976;7.034;2023-06-05T00:17:15;5.07;;;2.70;;
30458;SDS011;17254;50.976;7.034;2023-06-05T00:17:23;5.24;;;2.88;;
30458;SDS011;17254;50.976;7.034;2023-06-05T00:17:29;5.10;;;2.90;;
30458;SDS011;17254;50.976;7.034;2023-06-05T00:17:36;4.67;;;2.87;;
30458;SDS011;17254;50.976;7.034;2023-06-05T00:17:42;5.15;;;2.78;;
30458;SDS011;17254;50.976;7.034;2023-06-05T00:17:50;5.20;;;2.67;;
30458;SDS011;17254;50.976;7.034;2023-06-05T00:17:57;4.80;;;2.70;;
30458;SDS011;17254;50.976;7.034;2023-06-05T00:18:03;4.94;;;2.82;;
30458;SDS011;17254;50.976;7.034;2023-06-05T00:18:10;5.18;;;3.02;;
30458;SDS011;17254;50.976;7.034;2023-06-05T00:18:17;5.00;;;3.03;;
30458;SDS011;17254;50.976;7.034;2023-06-05T00:18:23;5.30;;;3.10;;
30458;SDS011;17254;50.976;7.034;2023-06-05T00:18:30;5.23;;;3.03;;
30458;SDS011;17254;50.976;7.034;2023-06-05T00:18:36;5.15;;;3.00;;
30458;SDS011;17254;50.976;7.034;2023-06-05T00:18:42;4.78;;;2.88;;
30458;SDS011;17254;50.976;7.034;2023-06-05T00:18:50;4.47;;;2.83;;
30458;SDS011;17254;50.976;7.034;2023-06-05T00:18:56;4.25;;;2.78;;
30458;SDS011;17254;50.976;7.034;2023-06-05T00:19:02;3.94;;;2.78;;
30458;SDS011;17254;50.976;7.034;2023-06-05T00:19:09;4.10;;;2.72;;
30458;SDS011;17254;50.976;7.034;2023-06-05T00:19:15;4.32;;;2.78;;
30458;SDS011;17254;50.976;7.034;2023-06-05T00:19:21;4.28;;;2.78;;
30458;SDS011;17254;50.976;7.034;2023-06-05T00:19:27;4.37;;;2.80;;
30458;SDS011;17254;50.976;7.034;2023-06-05T00:19:35;4.40;;;2.80;;
30458;SDS011;17254;50.976;7.034;2023-06-05T00:19:41;3.83;;;2.85;;
30458;SDS011;17254;50.976;7.034;2023-06-05T00:19:47;3.85;;;2.80;;
30458;SDS011;17254;50.976;7.034;2023-06-05T00:19:52;3.83;;;2.87;;
30458;SDS011;17254;50.976;7.034;2023-06-05T00:19:59;3.80;;;2.90;;
30458;SDS011;17254;50.976;7.034;2023-06-05T00:20:06;3.90;;;2.80;;
30458;SDS011;17254;50.976;7.034;2023-06-05T00:20:14;4.47;;;2.67;;
30458;SDS011;17254;50.976;7.034;2023-06-05T00:20:20;5.10;;;2.70;;
30458;SDS011;17254;50.976;7.034;2023-06-05T00:20:26;5.28;;;2.63;;
30458;SDS011;17254;50.976;7.034;2023-06-05T00:20:32;5.38;;;2.60;;
30458;SDS011;17254;50.976;7.034;2023-06-05T00:20:38;5.43;;;2.60;;
30458;SDS011;17254;50.976;7.034;2023-06-05T00:20:44;5.00;;;2.63;;
30458;SDS011;17254;50.976;7.034;2023-06-05T00:20:50;4.78;;;2.70;;
30458;SDS011;17254;50.976;7.034;2023-06-05T00:20:56;4.47;;;2.75;;
30458;SDS011;17254;50.976;7.034;2023-06-05T00:21:02;4.63;;;2.88;;
30458;SDS011;17254;50.976;7.034;2023-06-05T00:21:09;4.50;;;2.90;;
30458;SDS011;17254;50.976;7.034;2023-06-05T00:21:15;4.47;;;2.90;;
30458;SDS011;17254;50.976;7.034;2023-06-05T00:21:21;4.67;;;2.87;;
30458;SDS011;17254;50.976;7.034;2023-06-05T00:21:28;4.83;;;2.87;;
30458;SDS011;17254;50.976;7.034;2023-06-05T00:21:35;5.40;;;2.90;;
30458;SDS011;17254;50.976;7.034;2023-06-05T00:21:41;5.40;;;2.97;;
30458;SDS011;17254;50.976;7.034;2023-06-05T00:21:47;5.47;;;3.03;;
30458;SDS011;17254;50.976;7.034;2023-06-05T00:21:55;6.20;;;3.13;;
30458;SDS011;17254;50.976;7.034;2023-06-05T00:22:02;6.22;;;3.10;;
30458;SDS011;17254;50.976;7.034;2023-06-05T00:22:08;5.90;;;3.03;;
30458;SDS011;17254;50.976;7.034;2023-06-05T00:22:17;5.80;;;2.85;;
30458;SDS011;17254;50.976;7.034;2023-06-05T00:22:23;5.05;;;2.72;;
30458;SDS011;17254;50.976;7.034;2023-06-05T00:22:29;4.00;;;2.63;;
30458;SDS011;17254;50.976;7.034;2023-06-05T00:22:36;4.06;;;2.60;;
30458;SDS011;17254;50.976;7.034;2023-06-05T00:22:44;4.13;;;2.70;;
30458;SDS011;17254;50.976;7.034;2023-06-05T00:22:50;4.35;;;2.80;;
30458;SDS011;17254;50.976;7.034;2023-06-05T00:22:57;4.50;;;2.80;;
30458;SDS011;17254;50.976;7.034;2023-06-05T00:23:03;4.55;;;2.90;;
30458;SDS011;17254;50.976;7.034;2023-06-05T00:23:09;4.40;;;2.88;;
30458;SDS011;17254;50.976;7.034;2023-06-05T00:23:16;4.52;;;2.80;;
30458;SDS011;17254;50.976;7.034;2023-06-05T00:23:22;4.32;;;2.67;;
30458;SDS011;17254;50.976;7.034;2023-06-05T00:23:28;4.30;;;2.70;;
30458;SDS011;17254;50.976;7.034;2023-06-05T00:23:34;4.13;;;2.70;;
30458;SDS011;17254;50.976;7.034;2023-06-05T00:23:40;4.35;;;2.83;;
30458;SDS011;17254;50.976;7.034;2023-06-05T00:23:47;4.43;;;2.90;;
30458;SDS011;17254;50.976;7.034;2023-06-05T00:23:53;4.60;;;2.97;;
30458;SDS011;17254;50.976;7.034;2023-06-05T00:23:59;4.63;;;2.83;;
30458;SDS011;17254;50.976;7.034;2023-06-05T00:24:05;4.74;;;2.80;;
30458;SDS011;17254;50.976;7.034;2023-06-05T00:24:11;4.68;;;2.70;;
30458;SDS011;17254;50.976;7.034;2023-06-05T00:24:17;4.70;;;2.70;;
30458;SDS011;17254;50.976;7.034;2023-06-05T00:24:23;4.67;;;2.80;;
30458;SDS011;17254;50.976;7.034;2023-06-05T00:24:30;4.67;;;2.80;;
30458;SDS011;17254;50.976;7.034;2023-06-05T00:24:36;4.47;;;2.72;;
30458;SDS011;17254;50.976;7.034;2023-06-05T00:24:44;4.03;;;2.73;;
30458;SDS011;17254;50.976;7.034;2023-06-05T00:24:50;4.07;;;2.70;;
30458;SDS011;17254;50.976;7.034;2023-06-05T00:24:56;4.22;;;2.70;;
30458;SDS011;17254;50.976;7.034;2023-06-05T00:25:03;4.50;;;2.90;;
30458;SDS011;17254;50.976;7.034;2023-06-05T00:25:09;5.00;;;3.00;;
30458;SDS011;17254;50.976;7.034;2023-06-05T00:25:15;5.10;;;3.10;;
30458;SDS011;17254;50.976;7.034;2023-06-05T00:25:21;4.95;;;3.08;;
30458;SDS011;17254;50.976;7.034;2023-06-05T00:25:27;5.15;;;3.03;;
30458;SDS011;17254;50.976;7.034;2023-06-05T00:25:33;5.00;;;3.03;;
30458;SDS011;17254;50.976;7.034;2023-06-05T00:25:40;4.70;;;3.02;;
30458;SDS011;17254;50.976;7.034;2023-06-05T00:25:46;4.68;;;2.97;;
30458;SDS011;17254;50.976;7.034;2023-06-05T00:25:52;4.57;;;2.90;;
30458;SDS011;17254;50.976;7.034;2023-06-05T00:25:58;4.25;;;2.88;;
30458;SDS011;17254;50.976;7.034;2023-06-05T00:26:04;4.22;;;2.72;;
30458;SDS011;17254;50.976;7.034;2023-06-05T00:26:10;4.30;;;2.67;;
30458;SDS011;17254;50.976;7.034;2023-06-05T00:26:16;4.28;;;2.80;;
30458;SDS011;17254;50.976;7.034;2023-06-05T00:26:22;4.75;;;2.90;;
30458;SDS011;17254;50.976;7.034;2023-06-05T00:26:30;4.88;;;3.00;;
30458;SDS011;17254;50.976;7.034;2023-06-05T00:26:36;4.93;;;3.22;;
30458;SDS011;17254;50.976;7.034;2023-06-05T00:26:42;4.80;;;3.13;;
30458;SDS011;17254;50.976;7.034;2023-06-05T00:26:48;5.10;;;3.10;;
30458;SDS011;17254;50.976;7.034;2023-06-05T00:26:54;4.60;;;3.00;;
30458;SDS011;17254;50.976;7.034;2023-06-05T00:27:00;4.72;;;2.90;;
30458;SDS011;17254;50.976;7.034;2023-06-05T00:27:07;4.60;;;2.80;;
30458;SDS011;17254;50.976;7.034;2023-06-05T00:27:13;4.63;;;2.87;;
30458;SDS011;17254;50.976;7.034;2023-06-05T00:27:19;4.25;;;2.80;;
30458;SDS011;17254;50.976;7.034;2023-06-05T00:27:26;4.37;;;2.80;;
30458;SDS011;17254;50.976;7.034;2023-06-05T00:27:32;4.38;;;2.85;;
30458;SDS011;17254;50.976;7.034;2023-06-05T00:27:38;4.40;;;2.70;;
30458;SDS011;17254;50.976;7.034;2023-06-05T00:27:46;4.60;;;2.73;;
30458;SDS011;17254;50.976;7.034;2023-06-05T00:27:52;4.75;;;2.80;;
30458;SDS011;17254;50.976;7.034;2023-06-05T00:27:58;4.75;;;3.05;;
30458;SDS011;17254;50.976;7.034;2023-06-05T00:28:04;4.78;;;3.05;;
30458;SDS011;17254;50.976;7.034;2023-06-05T00:28:10;4.80;;;3.17;;
30458;SDS011;17254;50.976;7.034;2023-06-05T00:28:16;4.78;;;3.35;;
30458;SDS011;17254;50.976;7.034;2023-06-05T00:28:23;4.70;;;3.23;;
30458;SDS011;17254;50.976;7.034;2023-06-05T00:28:29;4.47;;;2.93;;
30458;SDS011;17254;50.976;7.034;2023-06-05T00:28:35;4.22;;;2.85;;
30458;SDS011;17254;50.976;7.034;2023-06-05T00:28:44;4.29;;;2.60;;
30458;SDS011;17254;50.976;7.034;2023-06-05T00:28:52;4.33;;;2.63;;
30458;SDS011;17254;50.976;7.034;2023-06-05T00:28:58;4.13;;;2.70;;
30458;SDS011;17254;50.976;7.034;2023-06-05T00:29:04;4.40;;;2.80;;
30458;SDS011;17254;50.976;7.034;2023-06-05T00:29:11;4.44;;;2.80;;
30458;SDS011;17254;50.976;7.034;2023-06-05T00:29:17;3.97;;;2.83;;
30458;SDS011;17254;50.976;7.034;2023-06-05T00:29:23;4.45;;;2.90;;
30458;SDS011;17254;50.976;7.034;2023-06-05T00:29:29;4.90;;;2.90;;
30458;SDS011;17254;50.976;7.034;2023-06-05T00:29:35;4.90;;;2.93;;
30458;SDS011;17254;50.976;7.034;2023-06-05T00:29:41;5.30;;;3.10;;
30458;SDS011;17254;50.976;7.034;2023-06-05T00:29:48;6.07;;;3.20;;
30458;SDS011;17254;50.976;7.034;2023-06-05T00:29:54;5.63;;;3.10;;
30458;SDS011;17254;50.976;7.034;2023-06-05T00:30:00;5.38;;;3.10;;
30458;SDS011;17254;50.976;7.034;2023-06-05T00:30:08;5.30;;;3.20;;
30458;SDS011;17254;50.976;7.034;2023-06-05T00:30:15;4.80;;;3.10;;
30458;SDS011;17254;50.976;7.034;2023-06-05T00:30:20;4.30;;;3.10;;
30458;SDS011;17254;50.976;7.034;2023-06-05T00:30:26;4.20;;;3.10;;
30458;SDS011;17254;50.976;7.034;2023-06-05T00:30:32;4.20;;;3.00;;
30458;SDS011;17254;50.976;7.034;2023-06-05T00:30:38;4.22;;;2.80;;
30458;SDS011;17254;50.976;7.034;2023-06-05T00:30:44;4.20;;;2.80;;
30458;SDS011;17254;50.976;7.034;2023-06-05T00:30:50;4.15;;;2.70;;
30458;SDS011;17254;50.976;7.034;2023-06-05T00:30:57;4.16;;;2.70;;
30458;SDS011;17254;50.976;7.034;2023-06-05T00:31:04;4.20;;;2.83;;
30458;SDS011;17254;50.976;7.034;2023-06-05T00:31:11;4.62;;;2.90;;
30458;SDS011;17254;50.976;7.034;2023-06-05T00:31:18;4.40;;;2.88;;
30458;SDS011;17254;50.976;7.034;2023-06-05T00:31:26;4.38;;;2.90;;
30458;SDS011;17254;50.976;7.034;2023-06-05T00:31:33;4.67;;;2.87;;
30458;SDS011;17254;50.976;7.034;2023-06-05T00:31:40;4.88;;;3.00;;
30458;SDS011;17254;50.976;7.034;2023-06-05T00:31:46;5.13;;;3.10;;
30458;SDS011;17254;50.976;7.034;2023-06-05T00:31:52;5.30;;;3.17;;
30458;SDS011;17254;50.976;7.034;2023-06-05T00:31:59;5.38;;;3.06;;
30458;SDS011;17254;50.976;7.034;2023-06-05T00:32:05;5.10;;;2.97;;
30458;SDS011;17254;50.976;7.034;2023-06-05T00:32:11;4.85;;;2.90;;
30458;SDS011;17254;50.976;7.034;2023-06-05T00:32:17;5.10;;;2.80;;
30458;SDS011;17254;50.976;7.034;2023-06-05T00:32:25;5.13;;;2.83;;
30458;SDS011;17254;50.976;7.034;2023-06-05T00:32:31;5.16;;;2.98;;
30458;SDS011;17254;50.976;7.034;2023-06-05T00:32:37;4.93;;;3.08;;
30458;SDS011;17254;50.976;7.034;2023-06-05T00:32:43;4.72;;;3.10;;
30458;SDS011;17254;50.976;7.034;2023-06-05T00:32:49;4.55;;;3.10;;
30458;SDS011;17254;50.976;7.034;2023-06-05T00:32:55;4.50;;;3.03;;
30458;SDS011;17254;50.976;7.034;2023-06-05T00:33:01;4.63;;;2.92;;
30458;SDS011;17254;50.976;7.034;2023-06-05T00:33:07;4.90;;;2.95;;
30458;SDS011;17254;50.976;7.034;2023-06-05T00:33:13;5.15;;;2.95;;
30458;SDS011;17254;50.976;7.034;2023-06-05T00:33:20;4.96;;;2.90;;
30458;SDS011;17254;50.976;7.034;2023-06-05T00:33:26;4.93;;;3.00;;
30458;SDS011;17254;50.976;7.034;2023-06-05T00:33:35;4.57;;;2.94;;
30458;SDS011;17254;50.976;7.034;2023-06-05T00:33:42;4.24;;;2.78;;
30458;SDS011;17254;50.976;7.034;2023-06-05T00:33:48;4.10;;;2.83;;
30458;SDS011;17254;50.976;7.034;2023-06-05T00:33:54;4.10;;;2.76;;
30458;SDS011;17254;50.976;7.034;2023-06-05T00:34:00;4.40;;;2.70;;
30458;SDS011;17254;50.976;7.034;2023-06-05T00:34:06;4.47;;;2.70;;
30458;SDS011;17254;50.976;7.034;2023-06-05T00:34:12;4.80;;;2.70;;
30458;SDS011;17254;50.976;7.034;2023-06-05T00:34:19;5.17;;;2.53;;
30458;SDS011;17254;50.976;7.034;2023-06-05T00:34:25;5.10;;;2.50;;
30458;SDS011;17254;50.976;7.034;2023-06-05T00:34:32;5.00;;;2.60;;
30458;SDS011;17254;50.976;7.034;2023-06-05T00:34:37;5.00;;;2.60;;
30458;SDS011;17254;50.976;7.034;2023-06-05T00:34:45;4.77;;;2.67;;
30458;SDS011;17254;50.976;7.034;2023-06-05T00:34:52;4.63;;;2.77;;
30458;SDS011;17254;50.976;7.034;2023-06-05T00:34:57;4.68;;;2.80;;
30458;SDS011;17254;50.976;7.034;2023-06-05T00:35:05;4.48;;;2.80;;
30458;SDS011;17254;50.976;7.034;2023-06-05T00:35:12;4.40;;;2.80;;
30458;SDS011;17254;50.976;7.034;2023-06-05T00:35:18;4.50;;;2.70;;
30458;SDS011;17254;50.976;7.034;2023-06-05T00:35:24;4.57;;;2.70;;
30458;SDS011;17254;50.976;7.034;2023-06-05T00:35:31;5.20;;;2.80;;
30458;SDS011;17254;50.976;7.034;2023-06-05T00:35:38;5.63;;;2.83;;
30458;SDS011;17254;50.976;7.034;2023-06-05T00:35:44;5.56;;;2.80;;
30458;SDS011;17254;50.976;7.034;2023-06-05T00:35:50;5.82;;;2.85;;
30458;SDS011;17254;50.976;7.034;2023-06-05T00:35:56;5.26;;;2.78;;
30458;SDS011;17254;50.976;7.034;2023-06-05T00:36:04;4.57;;;2.60;;
30458;SDS011;17254;50.976;7.034;2023-06-05T00:36:11;4.47;;;2.70;;
30458;SDS011;17254;50.976;7.034;2023-06-05T00:36:17;4.20;;;2.83;;
30458;SDS011;17254;50.976;7.034;2023-06-05T00:36:24;4.10;;;2.86;;
30458;SDS011;17254;50.976;7.034;2023-06-05T00:36:30;4.23;;;2.87;;
30458;SDS011;17254;50.976;7.034;2023-06-05T00:36:37;4.07;;;2.80;;
30458;SDS011;17254;50.976;7.034;2023-06-05T00:36:45;4.46;;;2.78;;
30458;SDS011;17254;50.976;7.034;2023-06-05T00:36:55;4.51;;;2.77;;
30458;SDS011;17254;50.976;7.034;2023-06-05T00:37:03;4.74;;;2.86;;
30458;SDS011;17254;50.976;7.034;2023-06-05T00:37:11;5.00;;;2.87;;
30458;SDS011;17254;50.976;7.034;2023-06-05T00:37:19;4.23;;;2.60;;
30458;SDS011;17254;50.976;7.034;2023-06-05T00:37:25;4.20;;;2.53;;
30458;SDS011;17254;50.976;7.034;2023-06-05T00:37:32;4.08;;;2.64;;
30458;SDS011;17254;50.976;7.034;2023-06-05T00:37:38;3.80;;;2.72;;
30458;SDS011;17254;50.976;7.034;2023-06-05T00:37:44;4.43;;;2.88;;
30458;SDS011;17254;50.976;7.034;2023-06-05T00:37:52;4.60;;;2.84;;
30458;SDS011;17254;50.976;7.034;2023-06-05T00:37:58;4.68;;;2.67;;
30458;SDS011;17254;50.976;7.034;2023-06-05T00:38:04;4.55;;;2.47;;
30458;SDS011;17254;50.976;7.034;2023-06-05T00:38:11;4.22;;;2.47;;
30458;SDS011;17254;50.976;7.034;2023-06-05T00:38:17;3.85;;;2.45;;
30458;SDS011;17254;50.976;7.034;2023-06-05T00:38:23;4.60;;;2.70;;
30458;SDS011;17254;50.976;7.034;2023-06-05T00:38:30;4.60;;;2.90;;
30458;SDS011;17254;50.976;7.034;2023-06-05T00:38:36;4.60;;;2.83;;
30458;SDS011;17254;50.976;7.034;2023-06-05T00:38:41;4.65;;;2.72;;
30458;SDS011;17254;50.976;7.034;2023-06-05T00:38:48;4.47;;;2.65;;
30458;SDS011;17254;50.976;7.034;2023-06-05T00:38:54;3.83;;;2.50;;
30458;SDS011;17254;50.976;7.034;2023-06-05T00:39:00;3.90;;;2.47;;